Time;durP1;ratioP1;P1;durP2;ratioP2;P2;SDS_P1;SDS_P2;PMS_P1;PMS_P2;Temp;Humidity;BMP_temperature;BMP_pressure;BME280_temperature;BME280_humidity;BME280_pressure;Samples;Min_cycle;Max_cycle;Signal;HPM_P1;HPM_P2
2020/12/23 00:00:00;;;;;;;5.72;1.33;;;14.90;96.10;;;;;;5015305;28;20141;-71
2020/12/23 00:02:26;;;;;;;5.80;1.20;;;14.90;96.10;;;;;;5015355;28;20045;-71
2020/12/23 00:04:51;;;;;;;8.18;1.10;;;15.00;96.10;;;;;;5015520;28;20089;-71
2020/12/23 00:07:17;;;;;;;7.57;1.17;;;14.90;96.10;;;;;;5030915;28;20038;-71
2020/12/23 00:09:44;;;;;;;9.70;0.80;;;14.90;96.20;;;;;;5015361;28;20432;-71
2020/12/23 00:12:10;;;;;;;7.47;1.08;;;14.80;96.30;;;;;;5014975;28;20042;-71
2020/12/23 00:14:37;;;;;;;6.47;0.75;;;14.90;96.30;;;;;;5015505;28;20045;-71
2020/12/23 00:17:03;;;;;;;6.88;0.90;;;14.90;96.30;;;;;;5014766;28;20443;-71
2020/12/23 00:19:29;;;;;;;5.53;0.77;;;14.90;96.20;;;;;;5014795;28;20469;-71
2020/12/23 00:21:55;;;;;;;8.05;1.10;;;14.90;96.30;;;;;;5014997;28;20113;-71
2020/12/23 00:24:20;;;;;;;6.85;0.75;;;14.90;96.30;;;;;;5015308;28;20057;-71
2020/12/23 00:26:47;;;;;;;8.77;0.90;;;14.90;96.20;;;;;;5015079;28;20125;-71
2020/12/23 00:29:13;;;;;;;9.63;0.90;;;15.00;96.20;;;;;;5014788;28;20070;-71
2020/12/23 00:31:40;;;;;;;4.72;0.70;;;15.00;96.10;;;;;;5015479;28;20333;-71
2020/12/23 00:34:06;;;;;;;6.10;0.70;;;14.90;96.10;;;;;;5015043;28;20037;-71
2020/12/23 00:36:32;;;;;;;6.63;0.80;;;15.00;96.20;;;;;;5014865;28;20044;-71
2020/12/23 00:38:58;;;;;;;7.40;0.90;;;15.00;96.40;;;;;;5015066;28;20042;-71
2020/12/23 00:41:24;;;;;;;7.57;1.00;;;15.00;96.10;;;;;;5015078;28;20038;-71
2020/12/23 00:43:50;;;;;;;6.50;0.50;;;15.10;96.00;;;;;;5014642;28;20038;-71
2020/12/23 00:46:16;;;;;;;9.35;0.88;;;15.00;96.00;;;;;;5014939;28;20049;-71
2020/12/23 00:48:42;;;;;;;8.18;0.80;;;15.00;96.10;;;;;;5015066;28;20117;-71
2020/12/23 00:51:15;;;;;;;11.88;1.20;;;15.00;96.20;;;;;;5014404;28;20058;-71
2020/12/23 00:53:42;;;;;;;9.23;1.20;;;15.10;96.10;;;;;;5014707;28;20038;-71
2020/12/23 00:56:11;;;;;;;8.05;1.10;;;15.00;96.00;;;;;;5014643;28;20120;-71
2020/12/23 00:58:37;;;;;;;10.75;1.40;;;15.00;96.00;;;;;;5029759;28;20385;-71
2020/12/23 01:01:04;;;;;;;9.77;1.88;;;15.00;96.00;;;;;;5014381;28;20042;-71
2020/12/23 01:03:30;;;;;;;8.40;2.17;;;15.00;96.00;;;;;;5014785;28;20069;-71
2020/12/23 01:05:56;;;;;;;6.07;1.42;;;15.00;96.00;;;;;;5014763;28;20080;-71
2020/12/23 01:08:22;;;;;;;9.05;1.90;;;15.00;96.00;;;;;;5014603;28;20037;-71
2020/12/23 01:10:48;;;;;;;8.50;1.52;;;15.00;96.00;;;;;;5014262;28;20366;-71
2020/12/23 01:13:14;;;;;;;6.88;1.17;;;14.90;96.00;;;;;;5014541;28;20041;-71
2020/12/23 01:15:40;;;;;;;7.47;1.02;;;15.00;96.00;;;;;;5014742;28;20030;-71
2020/12/23 01:18:06;;;;;;;7.53;0.95;;;15.00;96.10;;;;;;5014518;28;20081;-71
2020/12/23 01:20:32;;;;;;;9.15;1.10;;;15.10;96.10;;;;;;5014494;28;20065;-71
2020/12/23 01:22:59;;;;;;;9.50;0.82;;;15.10;96.00;;;;;;5014626;28;20132;-71
2020/12/23 01:25:24;;;;;;;9.13;1.08;;;15.10;96.00;;;;;;5013192;28;20034;-71
2020/12/23 01:27:50;;;;;;;8.30;0.80;;;15.20;96.10;;;;;;5013743;28;20121;-71
2020/12/23 01:30:16;;;;;;;8.85;0.98;;;15.10;96.10;;;;;;5013915;28;20066;-71
2020/12/23 01:32:43;;;;;;;10.23;1.02;;;15.10;96.10;;;;;;5014050;28;20073;-71
2020/12/23 01:35:10;;;;;;;7.40;0.70;;;15.10;96.20;;;;;;5013926;28;20049;-71
2020/12/23 01:37:36;;;;;;;4.70;0.43;;;15.00;96.20;;;;;;5013805;28;20030;-71
2020/12/23 01:40:03;;;;;;;6.07;0.68;;;15.10;96.20;;;;;;5013918;28;20124;-71
2020/12/23 01:42:32;;;;;;;3.88;0.40;;;15.00;96.30;;;;;;5013408;28;20116;-71
2020/12/23 01:44:58;;;;;;;3.67;0.38;;;15.10;96.40;;;;;;5013561;28;20493;-71
2020/12/23 01:47:25;;;;;;;7.95;0.50;;;15.10;96.40;;;;;;5013580;28;20520;-71
2020/12/23 01:49:52;;;;;;;3.00;0.40;;;15.10;96.50;;;;;;5013822;28;20048;-71
2020/12/23 01:52:19;;;;;;;4.10;0.30;;;15.00;96.50;;;;;;5014318;28;20543;-71
2020/12/23 01:54:46;;;;;;;2.05;0.38;;;15.00;96.50;;;;;;5013708;28;20048;-71
2020/12/23 01:57:13;;;;;;;2.72;0.50;;;15.10;96.50;;;;;;5013509;28;20034;-71
2020/12/23 01:59:43;;;;;;;5.05;0.50;;;15.10;96.50;;;;;;5013667;28;20037;-71
2020/12/23 02:02:27;;;;;;;4.53;0.22;;;15.00;96.50;;;;;;5013695;28;20401;-71
2020/12/23 02:04:53;;;;;;;5.63;0.20;;;15.10;96.60;;;;;;5013645;28;20046;-71
2020/12/23 02:07:24;;;;;;;2.75;0.35;;;15.10;96.60;;;;;;5013858;28;20034;-71
2020/12/23 02:09:53;;;;;;;1.92;0.20;;;15.10;96.50;;;;;;5013629;28;20137;-71
2020/12/23 02:12:19;;;;;;;1.73;0.20;;;15.10;96.60;;;;;;5013272;28;20042;-71
2020/12/23 02:14:45;;;;;;;3.40;0.20;;;15.10;96.50;;;;;;5013834;28;20069;-71
2020/12/23 02:17:11;;;;;;;4.32;0.25;;;15.20;96.60;;;;;;5013785;28;20077;-71
2020/12/23 02:19:51;;;;;;;5.35;0.20;;;15.20;96.50;;;;;;5013812;28;20042;-71
2020/12/23 02:22:28;;;;;;;2.38;0.22;;;15.10;96.50;;;;;;5013450;28;20078;-71
2020/12/23 02:24:54;;;;;;;3.33;0.43;;;15.00;96.50;;;;;;5013324;28;20528;-71
2020/12/23 02:27:21;;;;;;;5.55;0.30;;;15.10;96.50;;;;;;5013524;28;20069;-71
2020/12/23 02:29:52;;;;;;;2.65;0.32;;;15.10;96.60;;;;;;5013260;28;20141;-71
2020/12/23 02:32:18;;;;;;;3.03;0.30;;;15.00;96.60;;;;;;5013700;28;20069;-71
2020/12/23 02:34:44;;;;;;;3.85;0.52;;;15.20;96.70;;;;;;5013877;28;20100;-71
2020/12/23 02:37:11;;;;;;;1.48;0.20;;;15.20;96.70;;;;;;5013586;28;20088;-71
2020/12/23 02:39:38;;;;;;;2.53;0.30;;;15.20;96.70;;;;;;5015093;28;20041;-70
2020/12/23 02:42:06;;;;;;;4.20;0.40;;;15.20;96.70;;;;;;5017013;28;20038;-71
2020/12/23 02:44:32;;;;;;;4.03;0.90;;;15.10;96.70;;;;;;5017383;28;20485;-71
2020/12/23 02:47:00;;;;;;;3.25;0.80;;;15.10;96.70;;;;;;5017105;28;20037;-71
2020/12/23 02:49:26;;;;;;;3.60;0.60;;;15.00;96.70;;;;;;5016868;28;20528;-70
2020/12/23 02:51:53;;;;;;;2.63;0.70;;;15.00;96.70;;;;;;5017246;28;20048;-71
2020/12/23 02:54:19;;;;;;;2.63;0.75;;;15.00;96.70;;;;;;5017216;28;20162;-71
2020/12/23 02:56:45;;;;;;;3.13;0.52;;;15.10;96.70;;;;;;5017335;28;20114;-71
2020/12/23 02:59:12;;;;;;;3.47;0.68;;;15.10;96.70;;;;;;5016853;28;20111;-71
2020/12/23 03:01:38;;;;;;;4.03;0.60;;;15.20;96.70;;;;;;5017341;28;20038;-71
2020/12/23 03:04:05;;;;;;;2.83;0.40;;;15.10;96.70;;;;;;5016998;28;20080;-71
2020/12/23 03:06:31;;;;;;;2.72;0.40;;;15.00;96.70;;;;;;5016864;28;20034;-70
2020/12/23 03:08:58;;;;;;;2.03;0.20;;;15.00;96.70;;;;;;5016740;28;20045;-71
2020/12/23 03:11:23;;;;;;;1.15;0.20;;;15.00;96.80;;;;;;5016487;28;20148;-71
2020/12/23 03:13:49;;;;;;;1.70;0.20;;;15.10;96.90;;;;;;5016397;28;20536;-71
2020/12/23 03:16:15;;;;;;;0.85;0.20;;;15.10;96.80;;;;;;5016855;28;20045;-71
2020/12/23 03:18:41;;;;;;;1.88;0.10;;;15.00;96.90;;;;;;5016567;28;20045;-71
2020/12/23 03:21:08;;;;;;;1.70;0.10;;;15.00;96.80;;;;;;5016536;28;20041;-71
2020/12/23 03:23:34;;;;;;;0.30;0.05;;;15.00;96.90;;;;;;5016180;28;20046;-71
2020/12/23 03:26:00;;;;;;;2.75;0.10;;;15.10;96.90;;;;;;5016695;28;20065;-71
2020/12/23 03:28:26;;;;;;;2.58;0.10;;;15.00;96.90;;;;;;5016614;28;20050;-71
2020/12/23 03:30:52;;;;;;;3.78;0.20;;;14.90;96.90;;;;;;5015801;28;20091;-71
2020/12/23 03:33:18;;;;;;;3.50;0.20;;;15.00;97.00;;;;;;5016100;28;20125;-71
2020/12/23 03:35:44;;;;;;;4.07;0.20;;;14.90;96.90;;;;;;5015998;28;20504;-71
2020/12/23 03:38:10;;;;;;;8.73;0.52;;;15.20;97.10;;;;;;5016026;28;20107;-71
2020/12/23 03:40:37;;;;;;;5.18;0.30;;;15.10;97.00;;;;;;5015764;28;20057;-71
2020/12/23 03:43:03;;;;;;;5.28;0.20;;;15.00;96.90;;;;;;5014563;28;20165;-71
2020/12/23 03:45:28;;;;;;;4.63;0.22;;;14.90;96.90;;;;;;5015763;28;20048;-71
2020/12/23 03:47:54;;;;;;;5.05;0.40;;;15.10;96.90;;;;;;5015652;28;20034;-71
2020/12/23 03:50:20;;;;;;;4.68;0.30;;;14.90;96.90;;;;;;5015273;28;20042;-71
2020/12/23 03:52:46;;;;;;;7.43;0.30;;;14.90;97.00;;;;;;5014797;28;20038;-71
2020/12/23 03:55:12;;;;;;;7.45;0.63;;;15.00;97.00;;;;;;5030990;28;20527;-71
2020/12/23 03:57:38;;;;;;;4.95;0.28;;;14.90;96.90;;;;;;5015320;28;20116;-70
2020/12/23 04:00:09;;;;;;;7.10;0.40;;;14.90;96.90;;;;;;5015621;28;20046;-71
2020/12/23 04:02:35;;;;;;;7.07;0.38;;;15.00;97.00;;;;;;5015375;28;20041;-71
2020/12/23 04:05:02;;;;;;;5.18;0.30;;;15.00;96.90;;;;;;5015630;28;20037;-71
2020/12/23 04:07:27;;;;;;;7.00;0.30;;;14.90;96.80;;;;;;5015534;28;20099;-71
2020/12/23 04:09:53;;;;;;;8.48;0.30;;;14.90;96.80;;;;;;5015351;28;20049;-71
2020/12/23 04:12:19;;;;;;;10.57;0.70;;;14.90;96.80;;;;;;5015008;28;20048;-71
2020/12/23 04:14:45;;;;;;;9.07;0.30;;;14.80;96.70;;;;;;5015113;28;20068;-71
2020/12/23 04:17:11;;;;;;;7.50;0.40;;;14.90;96.80;;;;;;5015200;28;20049;-71
2020/12/23 04:19:37;;;;;;;6.97;0.47;;;14.90;96.70;;;;;;5015285;28;20049;-71
2020/12/23 04:22:03;;;;;;;7.50;0.30;;;15.00;96.70;;;;;;5014946;28;20037;-71
2020/12/23 04:24:29;;;;;;;6.35;0.30;;;14.90;96.70;;;;;;5015191;28;20132;-71
2020/12/23 04:26:55;;;;;;;8.68;0.57;;;14.90;96.70;;;;;;5015006;28;20045;-71
2020/12/23 04:29:20;;;;;;;8.38;0.40;;;14.90;96.60;;;;;;5014812;28;20401;-71
2020/12/23 04:31:47;;;;;;;11.07;0.38;;;14.80;96.60;;;;;;5015219;28;20481;-71
2020/12/23 04:34:13;;;;;;;11.63;0.40;;;14.90;96.50;;;;;;5014999;28;20143;-71
2020/12/23 04:36:39;;;;;;;7.55;0.38;;;14.80;96.50;;;;;;5015057;28;20450;-71
2020/12/23 04:39:04;;;;;;;8.38;0.43;;;14.90;96.60;;;;;;5014050;28;20050;-71
2020/12/23 04:41:34;;;;;;;9.60;0.50;;;14.80;96.60;;;;;;5015180;28;20042;-71
2020/12/23 04:44:00;;;;;;;10.52;0.80;;;14.90;96.60;;;;;;5014631;28;20040;-71
2020/12/23 04:46:29;;;;;;;13.20;0.77;;;14.90;96.60;;;;;;5015071;28;20042;-71
2020/12/23 04:48:59;;;;;;;14.73;0.80;;;14.90;96.60;;;;;;5014877;28;20069;-71
2020/12/23 04:51:30;;;;;;;13.48;0.77;;;14.90;96.60;;;;;;5015078;28;20042;-71
2020/12/23 04:53:58;;;;;;;8.70;0.80;;;14.80;96.50;;;;;;5014468;28;20371;-71
2020/12/23 04:56:27;;;;;;;8.98;0.73;;;14.80;96.80;;;;;;5014535;28;20057;-71
2020/12/23 04:58:55;;;;;;;11.80;0.82;;;14.90;96.60;;;;;;5014430;28;20049;-71
2020/12/23 05:01:21;;;;;;;7.50;0.90;;;14.80;96.50;;;;;;5015242;28;20516;-71
2020/12/23 05:03:47;;;;;;;9.05;0.65;;;14.80;96.60;;;;;;5013722;28;20038;-71
2020/12/23 05:06:13;;;;;;;11.23;0.80;;;14.80;96.50;;;;;;5014840;28;20377;-71
2020/12/23 05:08:39;;;;;;;7.25;0.80;;;14.80;96.50;;;;;;5014434;28;20033;-71
2020/12/23 05:11:08;;;;;;;9.32;0.80;;;14.80;96.60;;;;;;5014921;28;20084;-71
2020/12/23 05:13:38;;;;;;;10.90;0.65;;;14.80;96.60;;;;;;5014412;28;20045;-71
2020/12/23 05:16:10;;;;;;;8.18;0.70;;;14.70;96.60;;;;;;5014359;28;20038;-71
2020/12/23 05:18:40;;;;;;;10.95;0.63;;;14.80;96.60;;;;;;5014200;28;20050;-71
2020/12/23 05:21:14;;;;;;;9.82;0.55;;;14.80;96.60;;;;;;5014491;28;20497;-71
2020/12/23 05:23:45;;;;;;;7.40;0.50;;;14.70;96.60;;;;;;5014301;28;20584;-71
2020/12/23 05:26:12;;;;;;;9.48;0.88;;;14.80;96.60;;;;;;5014249;28;20038;-71
2020/12/23 05:28:39;;;;;;;10.25;0.85;;;14.80;96.50;;;;;;5014504;28;20046;-71
2020/12/23 05:31:07;;;;;;;8.55;0.70;;;14.70;96.70;;;;;;5013739;28;20060;-71
2020/12/23 05:33:38;;;;;;;11.15;0.90;;;14.70;96.50;;;;;;5014236;28;20034;-71
2020/12/23 05:36:09;;;;;;;9.20;0.90;;;14.70;96.50;;;;;;5014322;28;20038;-71
2020/12/23 05:38:35;;;;;;;10.18;0.75;;;14.60;96.60;;;;;;5014180;28;20038;-71
2020/12/23 05:41:03;;;;;;;9.60;1.00;;;14.60;96.60;;;;;;5014477;28;20050;-71
2020/12/23 05:43:30;;;;;;;7.07;0.68;;;14.70;96.50;;;;;;5014123;28;20045;-71
2020/12/23 05:46:09;;;;;;;11.00;1.05;;;14.80;96.60;;;;;;5014247;28;20053;-71
2020/12/23 05:48:37;;;;;;;7.78;0.70;;;14.70;96.60;;;;;;5014231;28;20037;-71
2020/12/23 05:51:05;;;;;;;10.95;0.95;;;14.70;96.50;;;;;;5014163;28;20050;-71
2020/12/23 05:53:34;;;;;;;7.20;0.82;;;14.70;96.50;;;;;;5014337;28;20042;-71
2020/12/23 05:56:02;;;;;;;10.93;0.82;;;14.70;96.50;;;;;;5014187;28;20046;-71
2020/12/23 05:58:32;;;;;;;9.57;0.90;;;14.60;96.50;;;;;;5013652;28;20042;-71
2020/12/23 06:01:03;;;;;;;5.95;0.70;;;14.80;96.50;;;;;;5014136;28;20077;-71
2020/12/23 06:04:00;;;;;;;11.90;0.85;;;14.80;96.50;;;;;;5014081;28;20044;-71
2020/12/23 06:06:30;;;;;;;5.57;0.60;;;14.70;96.50;;;;;;5014286;28;20246;-71
2020/12/23 06:08:58;;;;;;;8.90;0.77;;;14.60;96.50;;;;;;5013881;28;20044;-71
2020/12/23 06:11:28;;;;;;;7.93;0.50;;;14.70;96.50;;;;;;5014268;28;20038;-71
2020/12/23 06:14:03;;;;;;;8.05;0.77;;;14.70;96.60;;;;;;5014433;28;20048;-71
2020/12/23 06:16:34;;;;;;;11.95;0.70;;;14.60;96.60;;;;;;5032822;28;20045;-70
2020/12/23 06:19:02;;;;;;;8.80;0.60;;;14.80;96.70;;;;;;5017833;28;20046;-71
2020/12/23 06:21:28;;;;;;;8.05;0.85;;;14.60;96.60;;;;;;5017741;28;20536;-71
2020/12/23 06:24:05;;;;;;;10.93;0.73;;;14.70;96.70;;;;;;5017641;28;20141;-71
2020/12/23 06:26:34;;;;;;;9.70;0.88;;;14.60;96.70;;;;;;5017468;28;20038;-71
2020/12/23 06:29:02;;;;;;;8.13;0.90;;;14.70;96.60;;;;;;5017164;28;20038;-71
2020/12/23 06:31:32;;;;;;;8.50;1.17;;;14.70;96.60;;;;;;5017156;28;20408;-71
2020/12/23 06:33:58;;;;;;;9.43;0.95;;;14.70;96.60;;;;;;5017059;28;20049;-71
2020/12/23 06:36:32;;;;;;;9.00;1.08;;;14.60;96.60;;;;;;5017293;28;20116;-71
2020/12/23 06:39:20;;;;;;;8.77;0.95;;;14.60;96.60;;;;;;5017542;28;20116;-71
2020/12/23 06:41:59;;;;;;;13.20;1.20;;;14.60;96.60;;;;;;5017260;28;20068;-71
2020/12/23 06:44:25;;;;;;;11.40;1.10;;;14.70;96.70;;;;;;5017460;28;20030;-70
2020/12/23 06:47:00;;;;;;;9.40;0.98;;;14.70;96.70;;;;;;5017092;28;20049;-71
2020/12/23 06:49:34;;;;;;;11.90;1.40;;;14.60;96.60;;;;;;5017266;28;20038;-71
2020/12/23 06:52:00;;;;;;;8.25;1.15;;;14.70;96.60;;;;;;5017108;28;20042;-71
2020/12/23 06:54:52;;;;;;;13.95;1.55;;;14.70;96.60;;;;;;5016812;28;20067;-71
2020/12/23 06:57:36;;;;;;;9.02;1.33;;;14.70;96.60;;;;;;5016538;28;20030;-71
2020/12/23 07:00:17;;;;;;;10.23;1.52;;;14.50;96.50;;;;;;5016935;28;20042;-71
2020/12/23 07:02:44;;;;;;;15.30;1.80;;;14.60;96.50;;;;;;5016839;28;20037;-71
2020/12/23 07:05:32;;;;;;;14.15;1.52;;;14.50;96.50;;;;;;5017041;28;20140;-71
2020/12/23 07:08:06;;;;;;;11.18;1.55;;;14.60;96.40;;;;;;5017027;28;20048;-71
2020/12/23 07:10:33;;;;;;;15.82;1.40;;;14.50;96.30;;;;;;5016568;28;20401;-71
2020/12/23 07:13:11;;;;;;;14.25;1.23;;;14.50;96.40;;;;;;5016761;28;20041;-71
2020/12/23 07:15:39;;;;;;;15.18;1.73;;;14.40;96.40;;;;;;5016709;28;20053;-71
2020/12/23 07:18:13;;;;;;;16.77;1.92;;;14.40;96.30;;;;;;5016617;28;20045;-71
2020/12/23 07:20:48;;;;;;;18.70;2.15;;;14.40;96.30;;;;;;5016397;28;20045;-71
2020/12/23 07:23:20;;;;;;;17.92;1.75;;;14.40;96.40;;;;;;5016519;28;20038;-71
2020/12/23 07:25:52;;;;;;;18.63;2.13;;;14.40;96.50;;;;;;5015529;28;20626;-71
2020/12/23 07:28:28;;;;;;;16.63;1.70;;;14.50;96.60;;;;;;5016628;28;20034;-71
2020/12/23 07:30:54;;;;;;;18.77;1.83;;;14.50;96.60;;;;;;5015642;28;20080;-72
2020/12/23 07:33:21;;;;;;;21.27;1.75;;;14.40;96.60;;;;;;5015943;28;20042;-71
2020/12/23 07:35:53;;;;;;;21.25;1.70;;;14.50;96.50;;;;;;5015871;28;20041;-71
2020/12/23 07:38:21;;;;;;;15.50;1.42;;;14.50;96.50;;;;;;5015643;28;20030;-71
2020/12/23 07:40:47;;;;;;;14.90;1.63;;;14.30;96.40;;;;;;5015717;28;20123;-71
2020/12/23 07:43:14;;;;;;;14.60;1.38;;;14.40;96.40;;;;;;5015822;28;20034;-71
2020/12/23 07:45:40;;;;;;;14.93;1.60;;;14.40;96.50;;;;;;5015759;28;20046;-71
2020/12/23 07:48:07;;;;;;;15.23;1.40;;;14.40;96.40;;;;;;5015729;28;20493;-71
2020/12/23 07:50:35;;;;;;;18.95;1.42;;;14.30;96.40;;;;;;5015628;28;20045;-71
2020/12/23 07:53:25;;;;;;;12.10;1.10;;;14.30;96.60;;;;;;5015738;28;20117;-71
2020/12/23 07:55:57;;;;;;;18.75;1.88;;;14.40;96.60;;;;;;5015873;28;20119;-71
2020/12/23 07:58:23;;;;;;;17.75;1.75;;;14.30;96.20;;;;;;5015559;28;20030;-71
2020/12/23 08:00:48;;;;;;;13.90;1.45;;;14.30;96.20;;;;;;5015860;28;20041;-71
2020/12/23 08:03:14;;;;;;;17.85;2.13;;;14.30;96.30;;;;;;5015130;28;20046;-71
2020/12/23 08:05:41;;;;;;;18.75;1.40;;;14.30;96.10;;;;;;5015540;28;20071;-71
2020/12/23 08:08:08;;;;;;;18.85;2.03;;;14.30;96.00;;;;;;5015564;28;20041;-71
2020/12/23 08:10:35;;;;;;;19.65;2.13;;;14.20;96.30;;;;;;5015027;28;20042;-71
2020/12/23 08:13:03;;;;;;;22.20;1.92;;;14.40;96.20;;;;;;5015210;28;20085;-71
2020/12/23 08:15:30;;;;;;;22.48;2.40;;;14.30;96.10;;;;;;5015236;28;20041;-71
2020/12/23 08:18:02;;;;;;;15.18;1.85;;;14.40;96.10;;;;;;5015150;28;20038;-71
2020/12/23 08:20:28;;;;;;;18.05;1.63;;;14.40;96.00;;;;;;5015354;28;20053;-72
2020/12/23 08:22:54;;;;;;;13.60;1.58;;;14.50;96.20;;;;;;5015251;28;20048;-71
2020/12/23 08:25:22;;;;;;;17.20;1.45;;;14.40;96.20;;;;;;5015365;28;20042;-71
2020/12/23 08:27:50;;;;;;;15.02;1.40;;;14.40;96.20;;;;;;5014678;28;20042;-71
2020/12/23 08:30:36;;;;;;;13.02;1.55;;;14.40;96.20;;;;;;5015022;28;20077;-71
2020/12/23 08:33:16;;;;;;;12.48;1.70;;;14.50;96.20;;;;;;5015446;28;20113;-71
2020/12/23 08:35:44;;;;;;;15.77;1.70;;;14.50;96.10;;;;;;5015088;28;20034;-71
2020/12/23 08:38:20;;;;;;;10.57;1.23;;;14.60;96.00;;;;;;5015062;28;20077;-71
2020/12/23 08:40:49;;;;;;;17.20;1.60;;;14.50;95.80;;;;;;5013639;28;20054;-72
2020/12/23 08:43:25;;;;;;;13.75;1.55;;;14.60;95.70;;;;;;5014824;28;20032;-71
2020/12/23 08:45:53;;;;;;;13.38;1.80;;;14.50;95.70;;;;;;5015511;28;20029;-72
2020/12/23 08:48:23;;;;;;;17.05;1.80;;;14.50;95.80;;;;;;5014673;28;20521;-71
2020/12/23 08:50:55;;;;;;;14.30;1.38;;;14.50;95.70;;;;;;5014445;28;20139;-71
2020/12/23 08:53:35;;;;;;;16.75;1.73;;;14.60;95.70;;;;;;5014794;28;20061;-71
2020/12/23 08:56:21;;;;;;;16.67;1.40;;;14.60;95.70;;;;;;5014776;28;20038;-71
2020/12/23 08:58:50;;;;;;;13.65;1.23;;;14.50;95.60;;;;;;5014167;28;20057;-72
2020/12/23 09:01:25;;;;;;;15.57;1.52;;;14.50;95.40;;;;;;5014195;28;20042;-71
2020/12/23 09:04:08;;;;;;;14.40;1.25;;;14.50;95.30;;;;;;5014423;28;20677;-71
2020/12/23 09:06:52;;;;;;;15.93;1.58;;;14.40;95.30;;;;;;5013087;28;20042;-71
2020/12/23 09:09:22;;;;;;;14.60;1.48;;;14.40;95.20;;;;;;5014201;28;20034;-71
2020/12/23 09:11:50;;;;;;;18.25;1.80;;;14.30;95.20;;;;;;5014692;28;20180;-71
2020/12/23 09:14:37;;;;;;;9.80;1.10;;;14.30;95.30;;;;;;5014102;28;20121;-72
2020/12/23 09:17:24;;;;;;;14.30;1.50;;;14.30;95.30;;;;;;5013912;28;20048;-71
2020/12/23 09:20:01;;;;;;;17.35;1.92;;;14.40;95.40;;;;;;5014177;28;20124;-72
2020/12/23 09:22:41;;;;;;;16.60;1.55;;;14.40;95.30;;;;;;5014409;28;20048;-71
2020/12/23 09:25:22;;;;;;;16.23;1.85;;;14.20;95.20;;;;;;5014207;28;20052;-71
2020/12/23 09:27:54;;;;;;;20.02;2.08;;;14.20;95.20;;;;;;5013930;28;20038;-71
2020/12/23 09:30:41;;;;;;;14.55;1.60;;;14.30;95.20;;;;;;5013511;28;20085;-71
2020/12/23 09:33:18;;;;;;;15.95;1.98;;;14.30;95.20;;;;;;5014164;28;20046;-71
2020/12/23 09:35:46;;;;;;;16.10;2.08;;;14.20;95.20;;;;;;5014158;28;20121;-71
2020/12/23 09:38:19;;;;;;;13.93;2.10;;;14.20;95.20;;;;;;5014025;28;20029;-72
2020/12/23 09:40:53;;;;;;;21.45;2.33;;;14.20;95.20;;;;;;5014288;28;20065;-71
2020/12/23 09:43:21;;;;;;;17.23;1.98;;;14.30;95.30;;;;;;5013534;28;20030;-71
2020/12/23 09:45:49;;;;;;;21.38;2.10;;;14.20;95.40;;;;;;5013951;28;20045;-72
2020/12/23 09:48:16;;;;;;;21.25;2.33;;;14.30;95.50;;;;;;5014147;28;20564;-71
2020/12/23 09:50:43;;;;;;;15.15;1.92;;;14.40;95.30;;;;;;5017481;28;20046;-71
2020/12/23 09:53:10;;;;;;;18.83;1.95;;;14.50;95.10;;;;;;5018062;28;20559;-71
2020/12/23 09:55:38;;;;;;;14.57;2.10;;;14.50;95.10;;;;;;5018087;28;20043;-72
2020/12/23 09:58:04;;;;;;;18.90;1.83;;;14.60;95.20;;;;;;5018213;28;20038;-71
2020/12/23 10:00:30;;;;;;;14.80;1.35;;;14.70;94.90;;;;;;5017944;28;20050;-71
2020/12/23 10:02:56;;;;;;;15.02;1.60;;;14.80;94.80;;;;;;5017779;28;20080;-71
2020/12/23 10:05:21;;;;;;;12.23;1.60;;;14.80;94.60;;;;;;5017706;28;20048;-71
2020/12/23 10:07:47;;;;;;;13.25;1.23;;;14.90;94.50;;;;;;5017530;28;20571;-71
2020/12/23 10:10:13;;;;;;;9.68;1.10;;;15.00;94.50;;;;;;5017428;28;20140;-72
2020/12/23 10:12:39;;;;;;;8.88;1.20;;;15.00;94.00;;;;;;5017584;28;20064;-71
2020/12/23 10:15:06;;;;;;;13.75;1.58;;;14.90;94.00;;;;;;5017603;28;20034;-71
2020/12/23 10:17:33;;;;;;;12.57;1.15;;;15.00;93.60;;;;;;5017509;28;20041;-71
2020/12/23 10:19:59;;;;;;;11.10;1.25;;;15.20;93.60;;;;;;5017508;28;20045;-71
2020/12/23 10:22:25;;;;;;;12.48;1.25;;;15.20;93.50;;;;;;5017583;28;20044;-72
2020/12/23 10:24:51;;;;;;;13.75;1.75;;;15.00;93.40;;;;;;5017367;28;20042;-71
2020/12/23 10:27:17;;;;;;;12.35;1.42;;;15.00;93.30;;;;;;5017242;28;20129;-71
2020/12/23 10:29:43;;;;;;;9.48;1.10;;;14.90;93.30;;;;;;5017159;28;20085;-72
2020/12/23 10:32:09;;;;;;;15.20;1.75;;;14.90;93.20;;;;;;5017381;28;20038;-72
2020/12/23 10:34:34;;;;;;;18.08;1.60;;;14.90;93.10;;;;;;5017146;28;20486;-71
2020/12/23 10:37:00;;;;;;;14.40;1.63;;;15.10;93.00;;;;;;5017171;28;20128;-71
2020/12/23 10:39:26;;;;;;;9.57;1.13;;;15.20;93.00;;;;;;5016880;28;20497;-71
2020/12/23 10:41:55;;;;;;;12.02;1.50;;;15.50;92.90;;;;;;5016678;28;20038;-71
2020/12/23 10:44:22;;;;;;;12.27;1.90;;;15.70;92.80;;;;;;5016998;28;20038;-71
2020/12/23 10:47:00;;;;;;;15.50;1.85;;;15.60;92.40;;;;;;5017027;28;20498;-71
2020/12/23 10:49:27;;;;;;;12.25;1.80;;;15.40;92.10;;;;;;5016880;28;20033;-71
2020/12/23 10:51:58;;;;;;;11.70;1.58;;;15.30;91.90;;;;;;5016783;28;20119;-71
2020/12/23 10:54:28;;;;;;;11.38;1.48;;;15.20;91.90;;;;;;5016804;28;20045;-72
2020/12/23 10:56:55;;;;;;;14.30;1.52;;;15.20;91.80;;;;;;5016387;28;20046;-71
2020/12/23 10:59:22;;;;;;;12.55;1.48;;;15.00;91.70;;;;;;5016712;28;20521;-71
2020/12/23 11:01:55;;;;;;;10.57;1.15;;;15.00;91.80;;;;;;5016952;28;20033;-71
2020/12/23 11:04:21;;;;;;;13.90;1.60;;;14.90;91.60;;;;;;5016449;28;20494;-71
2020/12/23 11:06:51;;;;;;;13.65;1.60;;;15.10;91.70;;;;;;5016437;28;20120;-71
2020/12/23 11:09:19;;;;;;;10.20;1.20;;;15.10;91.30;;;;;;5016334;28;20046;-71
2020/12/23 11:11:54;;;;;;;10.10;1.05;;;15.10;91.30;;;;;;5016639;28;20096;-71
2020/12/23 11:14:20;;;;;;;13.90;1.20;;;15.20;91.20;;;;;;5016642;28;20038;-71
2020/12/23 11:16:50;;;;;;;9.43;0.93;;;15.30;91.20;;;;;;5016535;28;20548;-71
2020/12/23 11:19:18;;;;;;;10.60;1.45;;;15.30;90.60;;;;;;5016194;28;20038;-71
2020/12/23 11:21:44;;;;;;;9.45;1.15;;;15.30;90.30;;;;;;5016386;28;20073;-71
2020/12/23 11:24:10;;;;;;;9.55;1.15;;;15.30;90.10;;;;;;5016668;28;20038;-72
2020/12/23 11:26:36;;;;;;;13.27;1.40;;;15.50;90.00;;;;;;5016155;28;20438;-71
2020/12/23 11:29:03;;;;;;;10.43;1.20;;;15.40;89.30;;;;;;5015680;28;20489;-72
2020/12/23 11:31:29;;;;;;;13.60;1.23;;;15.30;88.40;;;;;;5016481;28;20140;-72
2020/12/23 11:33:55;;;;;;;12.55;0.90;;;15.10;88.20;;;;;;5016174;28;20117;-72
2020/12/23 11:36:21;;;;;;;7.75;0.85;;;15.00;88.10;;;;;;5016269;28;20034;-71
2020/12/23 11:38:47;;;;;;;9.27;1.05;;;15.10;88.10;;;;;;5015906;28;20416;-71
2020/12/23 11:41:13;;;;;;;11.95;1.13;;;15.10;88.00;;;;;;5031603;28;20049;-71
2020/12/23 11:43:40;;;;;;;15.13;1.25;;;15.10;87.80;;;;;;5016058;28;20101;-71
2020/12/23 11:46:07;;;;;;;13.30;1.08;;;15.30;88.10;;;;;;5016343;28;20060;-72
2020/12/23 11:48:34;;;;;;;7.85;1.27;;;15.60;88.80;;;;;;5016283;28;20041;-71
2020/12/23 11:51:00;;;;;;;15.43;1.55;;;15.80;87.80;;;;;;5015946;28;20046;-71
2020/12/23 11:53:26;;;;;;;10.68;1.48;;;16.10;87.30;;;;;;5015823;28;20401;-71
2020/12/23 11:55:52;;;;;;;13.88;1.50;;;16.30;86.90;;;;;;5015932;28;20038;-72
2020/12/23 11:58:18;;;;;;;9.02;1.45;;;16.20;85.70;;;;;;5015723;28;20154;-71
2020/12/23 12:00:44;;;;;;;10.32;1.58;;;16.10;85.30;;;;;;5016036;28;20119;-71
2020/12/23 12:03:09;;;;;;;9.82;1.33;;;15.90;85.20;;;;;;5016121;28;20121;-72
2020/12/23 12:05:35;;;;;;;10.32;2.05;;;15.70;85.00;;;;;;5015556;28;20041;-71
2020/12/23 12:08:07;;;;;;;9.85;1.60;;;15.70;85.00;;;;;;5016094;28;20486;-71
2020/12/23 12:10:33;;;;;;;13.20;1.67;;;15.50;84.60;;;;;;5015945;28;20056;-72
2020/12/23 12:13:00;;;;;;;15.13;1.75;;;15.40;84.50;;;;;;5015200;28;20485;-71
2020/12/23 12:15:26;;;;;;;9.95;1.50;;;15.30;84.30;;;;;;5015953;28;20030;-71
2020/12/23 12:17:51;;;;;;;8.75;1.20;;;15.10;84.40;;;;;;5015618;28;20038;-71
2020/12/23 12:20:19;;;;;;;9.02;1.35;;;15.00;84.70;;;;;;5015590;28;20123;-71
2020/12/23 12:22:45;;;;;;;8.60;1.35;;;15.00;84.50;;;;;;5015476;28;20040;-71
2020/12/23 12:25:13;;;;;;;11.40;1.40;;;14.90;84.00;;;;;;5015209;28;20386;-71
2020/12/23 12:27:39;;;;;;;10.05;1.23;;;14.80;83.60;;;;;;5015507;28;20125;-71
2020/12/23 12:30:05;;;;;;;12.50;1.30;;;14.80;83.80;;;;;;5014866;28;20144;-72
2020/12/23 12:32:31;;;;;;;11.52;1.42;;;14.80;84.00;;;;;;5015066;28;20029;-71
2020/12/23 12:34:57;;;;;;;10.57;1.70;;;14.80;84.20;;;;;;5014862;28;20041;-71
2020/12/23 12:37:23;;;;;;;14.57;1.65;;;14.80;84.00;;;;;;5015279;28;20612;-72
2020/12/23 12:39:49;;;;;;;12.35;1.58;;;14.80;84.00;;;;;;5014868;28;20065;-71
2020/12/23 12:42:14;;;;;;;15.35;1.52;;;14.80;83.60;;;;;;5015129;28;20477;-71
2020/12/23 12:44:40;;;;;;;8.65;1.27;;;14.90;83.10;;;;;;5014566;28;20498;-71
2020/12/23 12:47:06;;;;;;;11.00;1.33;;;14.80;82.90;;;;;;5014523;28;20042;-71
2020/12/23 12:49:32;;;;;;;10.88;1.85;;;14.70;82.50;;;;;;5015019;28;20062;-72